createdAt,value
2023-05-25T00:01:45.122Z,15.20
2023-05-25T00:04:17.689Z,15.10
2023-05-25T00:06:47.823Z,15.20
2023-05-25T00:09:17.122Z,15.10
2023-05-25T00:11:46.535Z,15.10
2023-05-25T00:14:16.024Z,15.10
2023-05-25T00:16:45.936Z,15.10
2023-05-25T00:19:18.855Z,15.10
2023-05-25T00:21:48.984Z,15.00
2023-05-25T00:24:18.348Z,15.00
2023-05-25T00:26:47.785Z,14.90
2023-05-25T00:29:17.205Z,14.90
2023-05-25T00:31:46.375Z,14.80
2023-05-25T00:34:17.020Z,14.80
2023-05-25T00:36:48.495Z,14.80
2023-05-25T00:39:17.981Z,14.70
2023-05-25T00:41:47.995Z,14.70
2023-05-25T00:44:22.262Z,14.70
2023-05-25T00:46:53.474Z,14.70
2023-05-25T00:49:24.468Z,14.70
2023-05-25T00:51:54.653Z,14.70
2023-05-25T00:54:24.226Z,14.70
2023-05-25T00:56:57.042Z,14.70
2023-05-25T00:59:31.292Z,14.60
2023-05-25T01:07:16.527Z,14.60
2023-05-25T01:09:47.160Z,14.70
2023-05-25T01:12:18.197Z,14.70
2023-05-25T01:14:48.790Z,14.60
2023-05-25T01:17:20.709Z,14.70
2023-05-25T01:20:08.163Z,14.60
2023-05-25T01:22:46.852Z,14.70
2023-05-25T01:25:22.065Z,14.60
2023-05-25T01:27:56.062Z,14.70
2023-05-25T01:30:27.924Z,14.60
2023-05-25T01:32:58.921Z,14.50
2023-05-25T01:35:29.680Z,14.50
2023-05-25T01:38:00.636Z,14.60
2023-05-25T01:40:30.210Z,14.60
2023-05-25T01:42:59.378Z,14.70
2023-05-25T01:45:29.182Z,14.70
2023-05-25T01:48:04.910Z,14.80
2023-05-25T01:50:43.082Z,14.70
2023-05-25T01:53:17.795Z,14.70
2023-05-25T01:55:54.422Z,14.70
2023-05-25T01:58:25.444Z,14.70
2023-05-25T02:00:55.879Z,14.80
2023-05-25T02:03:26.129Z,14.80
2023-05-25T02:05:58.147Z,14.80
2023-05-25T02:08:28.843Z,14.80
2023-05-25T02:10:58.084Z,14.80
2023-05-25T02:13:27.395Z,14.80
2023-05-25T02:15:56.635Z,14.80
2023-05-25T02:18:26.752Z,14.80
2023-05-25T02:20:56.675Z,14.80
2023-05-25T02:23:28.961Z,14.80
2023-05-25T02:25:58.169Z,14.80
2023-05-25T02:28:27.488Z,14.80
2023-05-25T02:30:57.032Z,14.80
2023-05-25T02:33:26.461Z,14.80
2023-05-25T02:35:55.787Z,14.80
2023-05-25T02:38:24.970Z,14.80
2023-05-25T02:40:56.699Z,14.70
2023-05-25T02:43:26.550Z,14.70
2023-05-25T02:45:55.819Z,14.70
2023-05-25T02:48:26.017Z,14.80
2023-05-25T02:50:56.071Z,14.80
2023-05-25T02:53:25.273Z,14.80
2023-05-25T02:55:56.574Z,14.80
2023-05-25T02:58:29.165Z,14.80
2023-05-25T03:01:11.061Z,14.70
2023-05-25T03:03:46.436Z,14.80
2023-05-25T03:06:16.283Z,14.80
2023-05-25T03:08:46.962Z,14.80
2023-05-25T03:11:17.693Z,14.90
2023-05-25T03:13:47.808Z,14.90
2023-05-25T03:16:18.638Z,14.90
2023-05-25T03:18:47.974Z,14.90
2023-05-25T03:21:17.155Z,14.90
2023-05-25T03:23:46.931Z,14.90
2023-05-25T03:26:17.828Z,15.00
2023-05-25T03:28:48.929Z,15.00
2023-05-25T03:31:18.175Z,14.90
2023-05-25T03:33:47.825Z,14.90
2023-05-25T03:36:17.761Z,14.80
2023-05-25T03:38:46.981Z,14.80
2023-05-25T03:41:17.720Z,14.90
2023-05-25T03:43:46.988Z,14.80
2023-05-25T03:46:16.813Z,14.80
2023-05-25T03:48:46.263Z,14.90
2023-05-25T03:51:16.712Z,15.00
2023-05-25T03:53:47.775Z,15.00
2023-05-25T03:56:18.311Z,15.10
2023-05-25T03:58:47.536Z,15.10
2023-05-25T04:01:16.988Z,15.10
2023-05-25T04:03:46.445Z,15.00
2023-05-25T04:06:19.698Z,15.00
2023-05-25T04:08:50.778Z,15.10
2023-05-25T04:11:22.859Z,15.20
2023-05-25T04:13:52.105Z,15.10
2023-05-25T04:16:22.024Z,15.20
2023-05-25T04:18:51.403Z,15.10
2023-05-25T04:21:20.758Z,15.10
2023-05-25T04:23:49.962Z,15.10
2023-05-25T04:26:21.459Z,15.10
2023-05-25T04:28:54.797Z,15.20
2023-05-25T04:31:51.762Z,15.10
2023-05-25T04:34:39.317Z,15.20
2023-05-25T04:37:21.833Z,15.30
2023-05-25T04:39:51.704Z,15.30
2023-05-25T04:42:24.284Z,15.40
2023-05-25T04:44:57.040Z,15.50
2023-05-25T04:47:26.452Z,15.50
2023-05-25T04:49:56.823Z,15.50
2023-05-25T04:52:26.061Z,15.60
2023-05-25T04:54:56.517Z,15.60
2023-05-25T04:57:28.366Z,15.70
2023-05-25T04:59:59.390Z,15.60
2023-05-25T05:02:28.685Z,15.60
2023-05-25T05:04:58.051Z,15.60
2023-05-25T05:07:27.258Z,15.60
2023-05-25T05:09:56.730Z,15.80
2023-05-25T05:12:27.469Z,15.80
2023-05-25T05:14:59.190Z,15.90
2023-05-25T05:17:31.077Z,15.90
2023-05-25T05:20:01.093Z,16.00
2023-05-25T05:22:30.515Z,16.10
2023-05-25T05:24:59.849Z,16.00
2023-05-25T05:27:30.553Z,16.00
2023-05-25T05:30:05.305Z,16.10
2023-05-25T05:32:35.170Z,16.20
2023-05-25T05:35:05.780Z,16.30
2023-05-25T05:37:44.695Z,16.30
2023-05-25T05:40:14.339Z,16.30
2023-05-25T05:42:46.361Z,16.30
2023-05-25T05:45:15.627Z,16.30
2023-05-25T05:47:45.336Z,16.30
2023-05-25T05:50:14.780Z,16.30
2023-05-25T05:52:44.286Z,16.20
2023-05-25T05:55:14.168Z,16.10
2023-05-25T05:57:45.977Z,16.10
2023-05-25T06:00:17.383Z,16.00
2023-05-25T06:02:47.995Z,15.90
2023-05-25T06:05:22.420Z,15.90
2023-05-25T06:07:54.367Z,16.00
2023-05-25T06:10:24.596Z,16.00
2023-05-25T06:12:56.001Z,16.00
2023-05-25T06:15:25.779Z,16.20
2023-05-25T06:17:58.677Z,16.20
2023-05-25T06:20:28.063Z,16.10
2023-05-25T06:22:57.451Z,16.20
2023-05-25T06:25:26.809Z,16.20
2023-05-25T06:27:59.188Z,16.30
2023-05-25T06:30:28.933Z,16.40
2023-05-25T06:32:59.001Z,16.50
2023-05-25T06:35:30.371Z,16.50
2023-05-25T06:38:00.056Z,16.50
2023-05-25T06:40:30.223Z,16.50
2023-05-25T06:43:00.945Z,16.60
2023-05-25T06:45:44.323Z,16.70
2023-05-25T06:48:14.071Z,16.80
2023-05-25T06:50:44.299Z,16.80
2023-05-25T06:53:14.008Z,16.80
2023-05-25T06:55:43.864Z,16.80
2023-05-25T06:58:15.156Z,16.90
2023-05-25T07:00:47.485Z,17.00
2023-05-25T07:03:37.085Z,17.00
2023-05-25T07:06:16.088Z,17.10
2023-05-25T07:08:48.647Z,17.10
2023-05-25T07:11:22.314Z,17.10
2023-05-25T07:13:53.573Z,17.10
2023-05-25T07:16:24.001Z,17.10
2023-05-25T07:18:56.469Z,17.20
2023-05-25T07:21:27.373Z,17.30
2023-05-25T07:23:56.882Z,17.30
2023-05-25T07:26:28.487Z,17.20
2023-05-25T07:29:00.063Z,17.20
2023-05-25T07:31:29.546Z,17.30
2023-05-25T07:33:58.868Z,17.50
2023-05-25T07:36:28.285Z,17.60
2023-05-25T07:38:57.621Z,17.70
2023-05-25T07:41:27.208Z,17.80
2023-05-25T07:43:56.596Z,17.80
2023-05-25T07:46:28.079Z,17.90
2023-05-25T07:48:58.916Z,18.00
2023-05-25T07:51:31.558Z,18.10
2023-05-25T07:54:01.056Z,18.30
2023-05-25T07:56:30.366Z,18.40
2023-05-25T07:59:00.385Z,18.50
2023-05-25T08:01:31.121Z,18.60
2023-05-25T08:04:00.742Z,18.90
2023-05-25T08:06:30.295Z,19.10
2023-05-25T08:08:59.638Z,19.30
2023-05-25T08:11:29.278Z,19.20
2023-05-25T08:14:00.581Z,19.20
2023-05-25T08:16:31.659Z,19.20
2023-05-25T08:19:01.947Z,19.40
2023-05-25T08:21:35.243Z,19.60
2023-05-25T08:24:05.611Z,19.70
2023-05-25T08:26:53.039Z,19.80
2023-05-25T08:29:23.970Z,20.10
2023-05-25T08:31:57.128Z,20.20
2023-05-25T08:34:27.169Z,20.30
2023-05-25T08:36:56.990Z,20.20
2023-05-25T08:39:27.228Z,20.30
2023-05-25T08:41:56.572Z,20.50
2023-05-25T08:44:26.044Z,20.70
2023-05-25T08:46:58.840Z,20.80
2023-05-25T08:49:29.997Z,21.10
2023-05-25T08:51:59.440Z,21.30
2023-05-25T08:54:33.180Z,21.70
2023-05-25T08:57:07.648Z,21.90
2023-05-25T08:59:44.564Z,22.00
2023-05-25T09:02:24.125Z,22.10
2023-05-25T09:04:53.867Z,22.30
2023-05-25T09:07:23.553Z,22.50
2023-05-25T09:09:53.756Z,22.70
2023-05-25T09:12:24.519Z,22.90
2023-05-25T09:14:55.914Z,23.00
2023-05-25T09:17:27.090Z,23.10
2023-05-25T09:19:56.889Z,23.10
2023-05-25T09:22:26.537Z,23.10
2023-05-25T09:24:56.106Z,23.10
2023-05-25T09:27:25.764Z,23.30
2023-05-25T09:30:00.239Z,23.50
2023-05-25T09:32:31.996Z,23.50
2023-05-25T09:35:09.575Z,23.70
2023-05-25T09:37:39.575Z,23.80
2023-05-25T09:40:11.187Z,23.90
2023-05-25T09:42:40.684Z,23.70
2023-05-25T09:45:10.664Z,23.60
2023-05-25T09:47:42.653Z,23.50
2023-05-25T09:50:13.443Z,23.10
2023-05-25T09:52:43.813Z,23.10
2023-05-25T09:55:13.799Z,23.10
2023-05-25T09:57:44.689Z,23.10
2023-05-25T10:00:15.369Z,23.00
2023-05-25T10:02:46.177Z,22.70
2023-05-25T10:05:15.589Z,22.70
2023-05-25T10:07:46.600Z,22.80
2023-05-25T10:10:17.052Z,22.80
2023-05-25T10:12:47.252Z,22.90
2023-05-25T10:15:18.037Z,23.00
2023-05-25T10:17:56.197Z,23.10
2023-05-25T10:20:56.524Z,23.10
2023-05-25T10:23:18.598Z,23.00
2023-05-25T10:25:51.137Z,22.80
2023-05-25T10:28:28.461Z,22.50
2023-05-25T10:30:59.377Z,22.30
2023-05-25T10:36:10.777Z,21.90
2023-05-25T10:38:44.986Z,21.90
2023-05-25T10:41:16.270Z,22.00
2023-05-25T10:43:46.102Z,22.00
2023-05-25T10:46:15.613Z,22.20
2023-05-25T10:48:50.432Z,22.30
2023-05-25T10:51:21.434Z,22.60
2023-05-25T10:54:02.376Z,22.50
2023-05-25T10:56:31.880Z,22.50
2023-05-25T10:59:02.387Z,22.60
2023-05-25T11:01:34.949Z,22.50
2023-05-25T11:04:18.696Z,22.50
2023-05-25T11:07:08.741Z,22.60
2023-05-25T11:09:43.868Z,22.70
2023-05-25T11:12:23.243Z,22.80
2023-05-25T11:15:15.679Z,22.90
2023-05-25T11:18:03.581Z,23.10
2023-05-25T11:20:34.577Z,23.30
2023-05-25T11:23:24.463Z,23.40
2023-05-25T11:25:53.899Z,23.60
2023-05-25T11:28:24.754Z,23.70
2023-05-25T11:30:54.361Z,23.80
2023-05-25T11:33:24.143Z,23.50
2023-05-25T11:35:57.838Z,23.60
2023-05-25T11:38:27.723Z,23.80
2023-05-25T11:41:07.681Z,23.90
2023-05-25T11:43:41.512Z,23.90
2023-05-25T11:46:12.001Z,23.70
2023-05-25T11:48:45.840Z,23.80
2023-05-25T11:51:16.756Z,23.50
2023-05-25T11:53:47.557Z,23.50
2023-05-25T11:56:33.671Z,23.80
2023-05-25T11:59:09.158Z,23.80
2023-05-25T12:01:38.933Z,23.00
2023-05-25T12:04:11.287Z,22.80
2023-05-25T12:06:42.223Z,22.80
2023-05-25T12:09:14.280Z,22.80
2023-05-25T12:11:45.990Z,22.90
2023-05-25T12:14:15.969Z,23.10
2023-05-25T12:16:46.489Z,23.30
2023-05-25T12:19:16.531Z,23.70
2023-05-25T12:21:48.217Z,24.00
2023-05-25T12:24:17.964Z,23.90
2023-05-25T12:26:51.138Z,23.90
2023-05-25T12:29:20.641Z,24.20
2023-05-25T12:31:50.032Z,24.60
2023-05-25T12:34:21.058Z,24.90
2023-05-25T12:36:53.153Z,24.90
2023-05-25T12:39:39.271Z,24.80
2023-05-25T12:42:15.696Z,24.70
2023-05-25T12:44:46.881Z,24.70
2023-05-25T12:47:20.250Z,24.70
2023-05-25T12:49:52.380Z,25.00
2023-05-25T12:52:37.299Z,25.00
2023-05-25T12:55:29.557Z,25.10
2023-05-25T12:58:00.485Z,25.00
2023-05-25T13:00:33.120Z,24.50
2023-05-25T13:03:02.633Z,24.40
2023-05-25T13:05:34.285Z,24.20
2023-05-25T13:08:06.428Z,24.10
2023-05-25T13:10:38.519Z,24.20
2023-05-25T13:13:08.201Z,24.50
2023-05-25T13:15:37.478Z,24.80
2023-05-25T13:18:07.167Z,25.10
2023-05-25T13:20:37.133Z,25.50
2023-05-25T13:23:07.878Z,25.80
2023-05-25T13:25:37.555Z,26.10
2023-05-25T13:28:07.320Z,26.30
2023-05-25T13:30:36.760Z,26.40
2023-05-25T13:33:06.333Z,26.60
2023-05-25T13:35:42.369Z,26.60
2023-05-25T13:38:15.739Z,26.40
2023-05-25T13:40:47.182Z,26.60
2023-05-25T13:43:16.936Z,26.40
2023-05-25T13:45:46.717Z,26.50
2023-05-25T13:48:16.424Z,26.60
2023-05-25T13:50:46.130Z,26.80
2023-05-25T13:53:17.101Z,26.90
2023-05-25T13:55:46.949Z,27.00
2023-05-25T13:58:16.359Z,26.90
2023-05-25T14:00:45.761Z,27.00
2023-05-25T14:03:15.445Z,26.80
2023-05-25T14:05:45.382Z,26.70
2023-05-25T14:08:16.432Z,26.70
2023-05-25T14:10:45.988Z,26.60
2023-05-25T14:13:15.560Z,26.50
2023-05-25T14:15:46.311Z,26.60
2023-05-25T14:18:16.174Z,26.90
2023-05-25T14:20:45.823Z,27.00
2023-05-25T14:23:19.530Z,27.10
2023-05-25T14:25:50.227Z,27.30
2023-05-25T14:28:19.525Z,27.50
2023-05-25T14:30:49.054Z,27.50
2023-05-25T14:33:18.420Z,27.50
2023-05-25T14:35:47.903Z,27.60
2023-05-25T14:38:19.174Z,27.50
2023-05-25T14:40:48.620Z,27.40
2023-05-25T14:43:18.115Z,27.30
2023-05-25T14:45:47.835Z,27.20
2023-05-25T14:48:19.168Z,27.20
2023-05-25T14:50:48.714Z,27.20
2023-05-25T14:53:19.956Z,27.30
2023-05-25T14:55:49.422Z,27.30
2023-05-25T14:58:18.782Z,27.10
2023-05-25T15:00:48.262Z,27.00
2023-05-25T15:03:18.178Z,26.80
2023-05-25T15:05:47.732Z,26.60
2023-05-25T15:08:18.802Z,26.60
2023-05-25T15:10:48.699Z,26.70
2023-05-25T15:13:19.026Z,26.80
2023-05-25T15:15:48.524Z,26.80
2023-05-25T15:18:18.070Z,26.70
2023-05-25T15:20:47.510Z,26.40
2023-05-25T15:23:16.919Z,26.30
2023-05-25T15:25:47.887Z,26.20
2023-05-25T15:28:17.317Z,26.20
2023-05-25T15:30:47.034Z,26.20
2023-05-25T15:33:16.365Z,26.30
2023-05-25T15:35:45.975Z,26.10
2023-05-25T15:38:15.638Z,25.90
2023-05-25T15:40:46.756Z,25.70
2023-05-25T15:43:16.209Z,25.60
2023-05-25T15:45:45.718Z,25.60
2023-05-25T15:48:17.519Z,25.40
2023-05-25T15:50:47.248Z,25.40
2023-05-25T15:53:16.726Z,25.40
2023-05-25T15:55:47.595Z,25.40
2023-05-25T15:58:18.057Z,25.30
2023-05-25T16:00:47.638Z,25.20
2023-05-25T16:03:16.992Z,25.00
2023-05-25T16:05:46.813Z,24.70
2023-05-25T16:08:16.340Z,24.50
2023-05-25T16:10:47.485Z,24.50
2023-05-25T16:13:16.969Z,24.50
2023-05-25T16:15:46.796Z,24.60
2023-05-25T16:18:17.047Z,24.70
2023-05-25T16:20:46.572Z,24.80
2023-05-25T16:23:16.636Z,24.90
2023-05-25T16:25:47.855Z,25.10
2023-05-25T16:28:17.385Z,25.00
2023-05-25T16:30:47.128Z,25.10
2023-05-25T16:33:16.552Z,25.20
2023-05-25T16:35:46.528Z,25.20
2023-05-25T16:38:16.520Z,25.20
2023-05-25T16:40:47.296Z,25.10
2023-05-25T16:43:16.723Z,25.20
2023-05-25T16:45:46.249Z,25.10
2023-05-25T16:48:16.435Z,25.00
2023-05-25T16:50:46.223Z,25.10
2023-05-25T16:53:15.727Z,25.40
2023-05-25T16:55:46.868Z,25.50
2023-05-25T16:58:16.680Z,25.40
2023-05-25T17:00:46.170Z,25.20
2023-05-25T17:03:15.814Z,25.10
2023-05-25T17:05:45.520Z,25.20
2023-05-25T17:08:15.293Z,25.10
2023-05-25T17:10:50.195Z,25.10
2023-05-25T17:13:19.663Z,25.00
2023-05-25T17:15:49.731Z,25.00
2023-05-25T17:18:19.191Z,25.00
2023-05-25T17:20:48.764Z,25.00
2023-05-25T17:23:19.582Z,24.90
2023-05-25T17:25:50.604Z,24.80
2023-05-25T17:28:20.002Z,24.70
2023-05-25T17:30:49.363Z,24.70
2023-05-25T17:33:19.119Z,24.70
2023-05-25T17:35:48.509Z,24.50
2023-05-25T17:38:18.167Z,24.40
2023-05-25T17:40:48.158Z,24.20
2023-05-25T17:43:19.586Z,24.10
2023-05-25T17:45:49.249Z,24.10
2023-05-25T17:48:18.886Z,24.00
2023-05-25T17:50:48.496Z,23.90
2023-05-25T17:53:18.263Z,23.80
2023-05-25T17:55:48.066Z,23.70
2023-05-25T17:58:19.120Z,23.60
2023-05-25T18:00:49.337Z,23.50
2023-05-25T18:03:19.134Z,23.40
2023-05-25T18:05:49.484Z,23.40
2023-05-25T18:08:19.198Z,23.30
2023-05-25T18:10:50.577Z,23.30
2023-05-25T18:13:22.325Z,23.30
2023-05-25T18:15:52.415Z,23.20
2023-05-25T18:18:25.233Z,23.00
2023-05-25T18:20:55.190Z,23.00
2023-05-25T18:23:25.246Z,22.90
2023-05-25T18:25:55.182Z,22.90
2023-05-25T18:28:28.636Z,22.90
2023-05-25T18:30:59.435Z,22.80
2023-05-25T18:33:28.871Z,22.70
2023-05-25T18:35:58.368Z,22.70
2023-05-25T18:38:27.826Z,22.60
2023-05-25T18:40:57.261Z,22.50
2023-05-25T18:43:28.238Z,22.50
2023-05-25T18:45:57.886Z,22.40
2023-05-25T18:48:27.356Z,22.40
2023-05-25T18:50:56.900Z,22.30
2023-05-25T18:53:26.281Z,22.30
2023-05-25T18:55:55.591Z,22.30
2023-05-25T18:58:25.088Z,22.30
2023-05-25T19:00:56.020Z,22.20
2023-05-25T19:03:25.687Z,22.20
2023-05-25T19:05:55.189Z,22.20
2023-05-25T19:08:24.479Z,22.10
2023-05-25T19:10:54.100Z,22.00
2023-05-25T19:13:23.801Z,22.00
2023-05-25T19:15:54.637Z,21.90
2023-05-25T19:18:24.157Z,21.90
2023-05-25T19:20:53.697Z,21.90
2023-05-25T19:23:23.426Z,21.80
2023-05-25T19:25:52.871Z,21.80
2023-05-25T19:28:22.441Z,21.80
2023-05-25T19:30:51.906Z,21.80
2023-05-25T19:33:22.841Z,21.80
2023-05-25T19:35:52.296Z,21.70
2023-05-25T19:38:22.144Z,21.70
2023-05-25T19:40:52.774Z,21.70
2023-05-25T19:43:22.174Z,21.70
2023-05-25T19:45:52.223Z,21.70
2023-05-25T19:48:27.207Z,21.70
2023-05-25T19:50:57.080Z,21.70
2023-05-25T19:53:26.601Z,21.70
2023-05-25T19:55:56.326Z,21.70
2023-05-25T19:58:25.848Z,21.60
2023-05-25T20:00:55.749Z,21.70
2023-05-25T20:03:27.015Z,21.70
2023-05-25T20:05:56.736Z,21.60
2023-05-25T20:08:27.571Z,21.50
2023-05-25T20:10:57.025Z,21.50
2023-05-25T20:13:26.521Z,21.40
2023-05-25T20:15:56.277Z,21.40
2023-05-25T20:18:27.300Z,21.30
2023-05-25T20:20:56.668Z,21.20
2023-05-25T20:23:26.293Z,21.20
2023-05-25T20:25:55.867Z,21.30
2023-05-25T20:28:25.381Z,21.30
2023-05-25T20:30:55.281Z,21.20
2023-05-25T20:33:24.936Z,21.30
2023-05-25T20:35:55.823Z,21.20
2023-05-25T20:38:26.498Z,21.20
2023-05-25T20:40:56.461Z,21.10
2023-05-25T20:43:26.036Z,21.00
2023-05-25T20:45:55.520Z,21.00
2023-05-25T20:48:25.486Z,20.90
2023-05-25T20:50:57.720Z,20.90
2023-05-25T20:53:28.777Z,20.90
2023-05-25T20:55:59.337Z,20.90
2023-05-25T20:58:29.142Z,20.90
2023-05-25T21:00:58.776Z,20.90
2023-05-25T21:03:28.268Z,20.90
2023-05-25T21:05:59.367Z,20.90
2023-05-25T21:08:28.638Z,20.90
2023-05-25T21:10:58.402Z,20.90
2023-05-25T21:13:27.959Z,20.80
2023-05-25T21:15:57.569Z,20.70
2023-05-25T21:18:27.026Z,20.60
2023-05-25T21:20:56.960Z,20.50
2023-05-25T21:23:29.044Z,20.50
2023-05-25T21:25:58.618Z,20.50
2023-05-25T21:28:27.991Z,20.30
2023-05-25T21:30:57.573Z,20.20
2023-05-25T21:33:35.949Z,20.20
2023-05-25T21:36:05.664Z,20.00
2023-05-25T21:38:36.599Z,20.00
2023-05-25T21:41:06.323Z,19.90
2023-05-25T21:43:35.464Z,19.90
2023-05-25T21:46:04.787Z,19.80
2023-05-25T21:48:34.189Z,19.80
2023-05-25T21:51:03.694Z,19.70
2023-05-25T21:53:32.960Z,19.60
2023-05-25T21:56:03.845Z,19.60
2023-05-25T21:58:33.038Z,19.40
2023-05-25T22:01:02.366Z,19.40
2023-05-25T22:03:33.675Z,19.30
2023-05-25T22:06:03.043Z,19.30
2023-05-25T22:08:32.308Z,19.30
2023-05-25T22:11:02.778Z,19.20
2023-05-25T22:13:32.159Z,19.10
2023-05-25T22:16:01.259Z,19.10
2023-05-25T22:18:30.399Z,19.10
2023-05-25T22:20:59.529Z,19.00
2023-05-25T22:23:28.821Z,19.00
2023-05-25T22:25:58.177Z,18.90
2023-05-25T22:28:28.889Z,18.90
2023-05-25T22:30:58.076Z,18.90
2023-05-25T22:33:27.538Z,18.80
2023-05-25T22:35:59.656Z,18.70
2023-05-25T22:38:31.743Z,18.70
2023-05-25T22:41:00.715Z,18.70
2023-05-25T22:43:31.256Z,18.60
2023-05-25T22:46:00.365Z,18.60
2023-05-25T22:48:29.473Z,18.40
2023-05-25T22:50:58.932Z,18.40
2023-05-25T22:53:27.822Z,18.30
2023-05-25T22:55:56.790Z,18.30
2023-05-25T22:58:25.975Z,18.20
2023-05-25T23:00:57.584Z,18.20
2023-05-25T23:03:26.818Z,18.10
2023-05-25T23:05:56.058Z,18.10
2023-05-25T23:08:25.023Z,18.10
2023-05-25T23:10:54.176Z,18.10
2023-05-25T23:13:24.378Z,18.00
2023-05-25T23:15:55.474Z,18.00
2023-05-25T23:18:26.125Z,18.00
2023-05-25T23:20:55.084Z,17.90
2023-05-25T23:23:24.132Z,17.80
2023-05-25T23:25:54.049Z,17.80
2023-05-25T23:28:23.279Z,17.80
2023-05-25T23:30:52.593Z,17.80
2023-05-25T23:33:22.307Z,17.80
2023-05-25T23:35:52.723Z,17.80
2023-05-25T23:38:21.866Z,17.70
2023-05-25T23:40:50.861Z,17.70
2023-05-25T23:43:20.066Z,17.70
2023-05-25T23:45:49.257Z,17.60
2023-05-25T23:48:18.482Z,17.50
2023-05-25T23:50:47.572Z,17.50
2023-05-25T23:53:18.150Z,17.50
2023-05-25T23:55:47.371Z,17.50
2023-05-25T23:58:16.377Z,17.50
